createdAt,value
2018-12-21T00:00:58.241Z,80.80
2018-12-21T00:02:33.170Z,81.89
2018-12-21T00:04:06.949Z,82.58
2018-12-21T00:05:40.955Z,82.26
2018-12-21T00:07:14.886Z,81.53
2018-12-21T00:08:48.881Z,81.74
2018-12-21T00:10:23.674Z,78.68
2018-12-21T00:11:58.022Z,78.29
2018-12-21T00:13:32.020Z,78.26
2018-12-21T00:15:05.901Z,77.06
2018-12-21T00:16:40.741Z,79.02
2018-12-21T00:18:14.849Z,80.78
2018-12-21T00:19:50.627Z,80.73
2018-12-21T00:21:24.603Z,81.85
2018-12-21T00:22:58.648Z,79.36
2018-12-21T00:24:33.326Z,80.96
2018-12-21T00:26:07.306Z,81.12
2018-12-21T00:27:42.153Z,79.22
2018-12-21T00:29:16.163Z,77.68
2018-12-21T00:30:48.846Z,79.33
2018-12-21T00:32:28.267Z,81.15
2018-12-21T00:34:08.112Z,81.08
2018-12-21T00:35:47.341Z,81.29
2018-12-21T00:37:27.187Z,80.40
2018-12-21T00:39:06.721Z,79.45
2018-12-21T00:40:45.635Z,80.89
2018-12-21T00:42:23.627Z,80.17
2018-12-21T00:44:07.791Z,80.33
2018-12-21T00:45:41.682Z,80.14
2018-12-21T00:47:20.491Z,79.81
2018-12-21T00:48:55.524Z,77.76
2018-12-21T00:50:30.345Z,80.53
2018-12-21T00:52:03.972Z,79.46
2018-12-21T00:53:37.802Z,79.30
2018-12-21T00:55:11.963Z,78.30
2018-12-21T00:56:46.871Z,78.15
2018-12-21T00:58:22.848Z,77.84
2018-12-21T00:59:56.593Z,78.65
2018-12-21T01:01:30.518Z,79.72
2018-12-21T01:03:06.762Z,80.06
2018-12-21T01:04:39.773Z,79.75
2018-12-21T01:06:14.626Z,81.71
2018-12-21T01:07:49.515Z,81.21
2018-12-21T01:09:24.349Z,79.27
2018-12-21T01:10:58.137Z,79.88
2018-12-21T01:12:32.974Z,79.43
2018-12-21T01:14:06.717Z,80.00
2018-12-21T01:15:40.480Z,79.99
2018-12-21T01:17:14.487Z,82.05
2018-12-21T01:18:50.413Z,80.91
2018-12-21T01:20:25.553Z,81.58
2018-12-21T01:22:01.091Z,80.62
2018-12-21T01:23:35.063Z,81.98
2018-12-21T01:25:08.823Z,81.24
2018-12-21T01:26:43.007Z,80.88
2018-12-21T01:28:17.720Z,81.97
2018-12-21T01:29:52.440Z,82.21
2018-12-21T01:31:26.946Z,81.38
2018-12-21T01:33:00.666Z,82.63
2018-12-21T01:34:35.447Z,81.96
2018-12-21T01:36:09.529Z,81.55
2018-12-21T01:37:43.553Z,82.82
2018-12-21T01:39:17.901Z,83.56
2018-12-21T01:40:51.655Z,81.48
2018-12-21T01:42:25.707Z,81.33
2018-12-21T01:43:59.793Z,81.24
2018-12-21T01:45:33.821Z,81.42
2018-12-21T01:47:07.797Z,82.07
2018-12-21T01:48:41.917Z,81.67
2018-12-21T01:50:15.800Z,82.39
2018-12-21T01:51:49.668Z,81.84
2018-12-21T01:53:23.533Z,82.28
2018-12-21T01:54:58.378Z,82.53
2018-12-21T01:56:32.469Z,81.72
2018-12-21T01:58:06.749Z,83.33
2018-12-21T01:59:40.963Z,82.28
2018-12-21T02:01:14.744Z,82.57
2018-12-21T02:02:48.394Z,81.87
2018-12-21T02:04:22.173Z,82.43
2018-12-21T02:05:56.202Z,82.93
2018-12-21T02:07:29.996Z,82.27
2018-12-21T02:09:04.105Z,83.67
2018-12-21T02:10:38.829Z,82.55
2018-12-21T02:12:12.976Z,83.42
2018-12-21T02:13:46.903Z,82.79
2018-12-21T02:15:21.853Z,81.72
2018-12-21T02:16:56.865Z,83.26
2018-12-21T02:18:31.295Z,82.59
2018-12-21T02:20:05.148Z,82.96
2018-12-21T02:21:39.309Z,82.74
2018-12-21T02:23:13.256Z,81.53
2018-12-21T02:24:47.232Z,82.36
2018-12-21T02:26:21.189Z,81.90
2018-12-21T02:27:55.222Z,82.30
2018-12-21T02:29:30.369Z,82.21
2018-12-21T02:31:04.152Z,82.35
2018-12-21T02:32:38.058Z,82.06
2018-12-21T02:34:12.673Z,82.39
2018-12-21T02:35:46.686Z,83.35
2018-12-21T02:37:21.561Z,82.95
2018-12-21T02:38:55.584Z,83.84
2018-12-21T02:40:31.331Z,81.91
2018-12-21T02:42:06.301Z,83.17
2018-12-21T02:43:41.313Z,81.37
2018-12-21T02:45:15.387Z,81.07
2018-12-21T02:46:49.344Z,80.68
2018-12-21T02:48:23.221Z,81.71
2018-12-21T02:49:57.234Z,81.30
2018-12-21T02:51:31.115Z,81.30
2018-12-21T02:53:05.419Z,83.18
2018-12-21T02:54:40.226Z,83.15
2018-12-21T02:56:14.172Z,80.33
2018-12-21T02:57:48.181Z,80.97
2018-12-21T02:59:22.130Z,80.44
2018-12-21T03:00:55.068Z,81.32
2018-12-21T03:02:29.282Z,80.20
2018-12-21T03:04:03.293Z,81.00
2018-12-21T03:05:37.564Z,80.59
2018-12-21T03:07:11.327Z,80.52
2018-12-21T03:08:45.159Z,80.80
2018-12-21T03:10:19.091Z,80.10
2018-12-21T03:11:52.975Z,82.45
2018-12-21T03:13:26.888Z,82.17
2018-12-21T03:15:00.806Z,81.26
2018-12-21T03:16:34.806Z,80.71
2018-12-21T03:18:08.885Z,80.70
2018-12-21T03:19:43.008Z,80.82
2018-12-21T03:21:16.871Z,80.50
2018-12-21T03:22:51.843Z,80.93
2018-12-21T03:24:26.735Z,80.94
2018-12-21T03:26:00.957Z,82.01
2018-12-21T03:27:34.910Z,80.93
2018-12-21T03:29:08.692Z,80.13
2018-12-21T03:30:42.991Z,80.83
2018-12-21T03:32:17.913Z,80.89
2018-12-21T03:33:52.000Z,80.66
2018-12-21T03:35:26.851Z,81.65
2018-12-21T03:37:01.581Z,81.37
2018-12-21T03:38:35.474Z,82.01
2018-12-21T03:40:09.481Z,82.00
2018-12-21T03:41:44.399Z,80.18
2018-12-21T03:43:18.171Z,80.89
2018-12-21T03:44:52.077Z,80.73
2018-12-21T03:46:25.991Z,81.51
2018-12-21T03:48:00.008Z,80.85
2018-12-21T03:49:33.890Z,81.01
2018-12-21T03:51:08.946Z,82.40
2018-12-21T03:52:43.748Z,81.66
2018-12-21T03:54:17.352Z,79.69
2018-12-21T03:55:51.157Z,79.17
2018-12-21T03:57:24.898Z,79.15
2018-12-21T03:58:58.761Z,79.41
2018-12-21T04:00:32.826Z,80.33
2018-12-21T04:02:06.604Z,80.17
2018-12-21T04:03:40.469Z,82.24
2018-12-21T04:05:14.471Z,81.55
2018-12-21T04:06:49.357Z,80.90
2018-12-21T04:08:23.067Z,81.48
2018-12-21T04:09:57.050Z,80.81
2018-12-21T04:11:31.000Z,80.60
2018-12-21T04:13:04.906Z,80.75
2018-12-21T04:14:38.937Z,80.38
2018-12-21T04:16:12.903Z,81.78
2018-12-21T04:17:46.873Z,79.28
2018-12-21T04:19:21.099Z,79.89
2018-12-21T04:20:56.105Z,80.00
2018-12-21T04:22:34.276Z,80.87
2018-12-21T04:24:05.119Z,80.03
2018-12-21T04:25:39.291Z,81.17
2018-12-21T04:27:13.600Z,80.13
2018-12-21T04:28:48.334Z,81.39
2018-12-21T04:30:23.376Z,81.24
2018-12-21T04:31:57.353Z,82.75
2018-12-21T04:33:31.370Z,81.69
2018-12-21T04:35:05.304Z,79.79
2018-12-21T04:36:40.231Z,79.98
2018-12-21T04:38:14.189Z,80.03
2018-12-21T04:39:48.108Z,80.20
2018-12-21T04:41:21.802Z,81.41
2018-12-21T04:42:56.525Z,79.99
2018-12-21T04:44:30.640Z,82.37
2018-12-21T04:46:06.506Z,82.07
2018-12-21T04:47:41.446Z,80.78
2018-12-21T04:49:16.334Z,80.15
2018-12-21T04:50:50.340Z,80.44
2018-12-21T04:52:24.249Z,81.22
2018-12-21T04:53:58.551Z,81.82
2018-12-21T04:55:33.069Z,80.75
2018-12-21T04:57:07.175Z,79.72
2018-12-21T04:58:41.241Z,79.18
2018-12-21T05:00:15.089Z,79.94
2018-12-21T05:01:49.168Z,81.63
2018-12-21T05:03:23.253Z,80.09
2018-12-21T05:04:57.195Z,81.43
2018-12-21T05:06:31.035Z,80.42
2018-12-21T05:08:04.935Z,80.42
2018-12-21T05:09:38.675Z,81.42
2018-12-21T05:11:12.507Z,83.00
2018-12-21T05:12:47.428Z,80.74
2018-12-21T05:14:21.402Z,81.00
2018-12-21T05:15:55.526Z,80.09
2018-12-21T05:17:29.843Z,80.33
2018-12-21T05:19:03.950Z,80.73
2018-12-21T05:20:37.859Z,81.24
2018-12-21T05:22:11.868Z,82.14
2018-12-21T05:23:45.652Z,82.12
2018-12-21T05:25:19.551Z,81.21
2018-12-21T05:26:52.717Z,80.61
2018-12-21T05:28:25.728Z,81.59
2018-12-21T05:29:59.840Z,83.75
2018-12-21T05:31:34.265Z,82.94
2018-12-21T05:33:08.060Z,81.63
2018-12-21T05:34:42.159Z,81.19
2018-12-21T05:36:16.984Z,80.59
2018-12-21T05:37:51.191Z,81.06
2018-12-21T05:39:25.118Z,80.60
2018-12-21T05:40:58.921Z,80.60
2018-12-21T05:42:32.895Z,80.78
2018-12-21T05:44:06.884Z,80.86
2018-12-21T05:45:40.888Z,80.83
2018-12-21T05:47:14.990Z,82.22
2018-12-21T05:48:48.904Z,82.95
2018-12-21T05:50:24.035Z,81.63
2018-12-21T05:51:57.920Z,82.80
2018-12-21T05:53:32.879Z,83.66
2018-12-21T05:55:06.881Z,82.39
2018-12-21T05:56:41.578Z,81.79
2018-12-21T05:58:15.454Z,83.61
2018-12-21T05:59:50.200Z,81.70
2018-12-21T06:01:24.336Z,83.81
2018-12-21T06:02:58.334Z,80.45
2018-12-21T06:04:32.452Z,82.44
2018-12-21T06:06:06.742Z,82.44
2018-12-21T06:07:40.568Z,81.18
2018-12-21T06:09:14.467Z,81.25
2018-12-21T06:10:48.460Z,82.14
2018-12-21T06:12:22.339Z,80.57
2018-12-21T06:13:56.302Z,80.80
2018-12-21T06:15:30.485Z,80.13
2018-12-21T06:17:04.480Z,81.23
2018-12-21T06:18:39.205Z,82.00
2018-12-21T06:20:13.511Z,80.44
2018-12-21T06:21:48.442Z,81.03
2018-12-21T06:23:23.282Z,81.88
2018-12-21T06:24:57.580Z,80.88
2018-12-21T06:26:32.509Z,80.95
2018-12-21T06:28:06.305Z,83.01
2018-12-21T06:29:40.244Z,83.17
2018-12-21T06:31:14.304Z,83.09
2018-12-21T06:32:48.011Z,80.85
2018-12-21T06:34:22.439Z,80.37
2018-12-21T06:35:57.370Z,80.49
2018-12-21T06:37:31.252Z,81.24
2018-12-21T06:39:05.564Z,80.97
2018-12-21T06:40:39.883Z,82.66
2018-12-21T06:42:14.701Z,80.91
2018-12-21T06:43:48.636Z,80.75
2018-12-21T06:45:23.425Z,80.14
2018-12-21T06:46:57.439Z,80.21
2018-12-21T06:48:31.443Z,80.57
2018-12-21T06:50:06.650Z,81.09
2018-12-21T06:51:41.474Z,80.51
2018-12-21T06:53:18.020Z,80.72
2018-12-21T06:54:48.573Z,81.54
2018-12-21T06:56:22.458Z,81.22
2018-12-21T06:57:56.287Z,82.41
2018-12-21T06:59:31.311Z,81.32
2018-12-21T07:01:05.792Z,81.10
2018-12-21T07:02:40.636Z,82.25
2018-12-21T07:04:14.656Z,82.58
2018-12-21T07:05:49.288Z,81.11
2018-12-21T07:07:23.191Z,80.38
2018-12-21T07:08:57.066Z,79.85
2018-12-21T07:10:32.019Z,79.95
2018-12-21T07:12:05.915Z,82.47
2018-12-21T07:13:39.956Z,80.50
2018-12-21T07:15:14.325Z,80.50
2018-12-21T07:16:48.361Z,80.21
2018-12-21T07:18:22.555Z,80.43
2018-12-21T07:19:56.781Z,80.63
2018-12-21T07:21:30.988Z,81.60
2018-12-21T07:23:05.083Z,81.43
2018-12-21T07:24:38.881Z,82.99
2018-12-21T07:26:12.737Z,84.21
2018-12-21T07:27:46.761Z,80.15
2018-12-21T07:29:20.777Z,79.35
2018-12-21T07:30:54.444Z,79.75
2018-12-21T07:32:29.298Z,80.51
2018-12-21T07:34:04.229Z,80.61
2018-12-21T07:35:39.149Z,79.82
2018-12-21T07:37:13.367Z,79.37
2018-12-21T07:38:48.188Z,79.18
2018-12-21T07:40:23.114Z,80.82
2018-12-21T07:41:57.232Z,79.96
2018-12-21T07:43:32.055Z,80.35
2018-12-21T07:45:05.943Z,79.40
2018-12-21T07:46:39.999Z,82.11
2018-12-21T07:48:14.977Z,80.46
2018-12-21T07:49:48.759Z,79.25
2018-12-21T07:51:22.682Z,80.61
2018-12-21T07:52:56.587Z,79.36
2018-12-21T07:54:30.712Z,79.51
2018-12-21T07:56:05.622Z,79.37
2018-12-21T07:57:39.826Z,79.37
2018-12-21T07:59:14.753Z,79.08
2018-12-21T08:00:49.470Z,79.36
2018-12-21T08:02:23.346Z,80.44
2018-12-21T08:04:27.568Z,81.00
2018-12-21T08:06:01.619Z,79.80
2018-12-21T08:07:37.624Z,80.73
2018-12-21T08:09:11.403Z,79.57
2018-12-21T08:10:45.452Z,79.11
2018-12-21T08:12:19.560Z,79.08
2018-12-21T08:13:53.485Z,82.15
2018-12-21T08:15:28.398Z,80.08
2018-12-21T08:17:02.494Z,79.02
2018-12-21T08:18:36.430Z,80.15
2018-12-21T08:20:10.374Z,79.32
2018-12-21T08:21:44.098Z,79.33
2018-12-21T08:23:18.014Z,78.92
2018-12-21T08:24:52.620Z,80.21
2018-12-21T08:26:26.930Z,81.72
2018-12-21T08:28:00.729Z,81.15
2018-12-21T08:29:34.426Z,81.96
2018-12-21T08:31:08.331Z,79.16
2018-12-21T08:32:42.060Z,80.80
2018-12-21T08:34:16.296Z,78.60
2018-12-21T08:35:51.256Z,79.23
2018-12-21T08:37:25.434Z,81.75
2018-12-21T08:38:59.198Z,81.77
2018-12-21T08:40:34.352Z,79.93
2018-12-21T08:42:08.188Z,82.29
2018-12-21T08:43:42.123Z,83.29
2018-12-21T08:45:16.933Z,81.28
2018-12-21T08:46:50.937Z,80.06
2018-12-21T08:48:25.155Z,78.44
2018-12-21T08:49:59.353Z,77.41
2018-12-21T08:51:33.473Z,79.08
2018-12-21T08:53:07.164Z,78.03
2018-12-21T08:54:41.170Z,77.68
2018-12-21T08:56:16.104Z,78.17
2018-12-21T08:57:50.896Z,79.65
2018-12-21T08:59:25.040Z,78.80
2018-12-21T09:00:59.741Z,80.08
2018-12-21T09:02:34.465Z,79.28
2018-12-21T09:04:08.595Z,79.21
2018-12-21T09:05:43.192Z,77.34
2018-12-21T09:07:17.308Z,78.23
2018-12-21T09:08:52.145Z,76.69
2018-12-21T09:10:27.241Z,77.18
2018-12-21T09:12:01.030Z,80.11
2018-12-21T09:13:36.199Z,81.66
2018-12-21T09:15:10.289Z,81.93
2018-12-21T09:16:45.216Z,79.23
2018-12-21T09:18:20.447Z,80.25
2018-12-21T09:19:55.375Z,81.92
2018-12-21T09:21:30.227Z,77.10
2018-12-21T09:23:04.522Z,79.02
2018-12-21T09:24:39.443Z,78.33
2018-12-21T09:26:13.161Z,81.44
2018-12-21T09:28:33.628Z,77.07
2018-12-21T09:29:37.944Z,78.88
2018-12-21T09:30:42.338Z,78.72
2018-12-21T09:31:46.700Z,77.09
2018-12-21T09:32:51.033Z,75.80
2018-12-21T09:33:55.470Z,78.32
2018-12-21T09:34:59.790Z,76.96
2018-12-21T09:36:04.194Z,75.66
2018-12-21T09:37:08.664Z,75.92
2018-12-21T09:38:14.286Z,76.50
2018-12-21T09:39:25.209Z,76.00
2018-12-21T09:40:29.748Z,76.98
2018-12-21T09:41:34.305Z,76.24
2018-12-21T09:42:38.723Z,77.15
2018-12-21T09:43:43.216Z,76.22
2018-12-21T09:44:52.546Z,77.04
2018-12-21T09:45:52.326Z,78.51
2018-12-21T09:46:56.602Z,77.69
2018-12-21T09:48:01.019Z,78.21
2018-12-21T09:49:05.440Z,77.45
2018-12-21T09:50:11.080Z,76.78
2018-12-21T09:51:15.576Z,77.42
2018-12-21T09:52:20.022Z,78.04
2018-12-21T09:53:24.447Z,80.64
2018-12-21T09:54:28.905Z,78.47
2018-12-21T09:55:33.312Z,77.86
2018-12-21T09:56:37.762Z,77.93
2018-12-21T09:57:42.149Z,78.18
2018-12-21T09:58:46.446Z,78.70
2018-12-21T09:59:50.836Z,77.67
2018-12-21T10:00:55.236Z,78.37
2018-12-21T10:01:59.693Z,77.92
2018-12-21T10:03:04.114Z,78.72
2018-12-21T10:04:08.515Z,80.40
2018-12-21T10:05:15.231Z,80.47
2018-12-21T10:06:19.649Z,79.09
2018-12-21T10:07:27.652Z,77.15
2018-12-21T10:08:28.534Z,77.70
2018-12-21T10:09:32.993Z,78.19
2018-12-21T10:10:37.305Z,77.44
2018-12-21T10:11:41.780Z,77.32
2018-12-21T10:12:46.002Z,77.12
2018-12-21T10:13:50.355Z,76.87
2018-12-21T10:14:54.638Z,77.35
2018-12-21T10:15:59.042Z,77.43
2018-12-21T10:17:03.445Z,77.13
2018-12-21T10:18:07.528Z,77.47
2018-12-21T10:19:11.580Z,77.65
2018-12-21T10:20:19.937Z,79.02
2018-12-21T10:21:20.046Z,78.25
2018-12-21T10:22:24.258Z,77.85
2018-12-21T10:23:28.332Z,77.64
2018-12-21T10:24:32.603Z,79.18
2018-12-21T10:25:36.722Z,78.04
2018-12-21T10:26:40.914Z,78.92
2018-12-21T10:27:45.400Z,77.66
2018-12-21T10:28:49.794Z,77.59
2018-12-21T10:29:54.335Z,77.55
2018-12-21T10:30:58.849Z,79.28
2018-12-21T10:32:03.230Z,78.73
2018-12-21T10:33:07.551Z,78.12
2018-12-21T10:34:12.101Z,78.37
2018-12-21T10:35:16.508Z,78.29
2018-12-21T10:36:20.884Z,78.05
2018-12-21T10:37:25.198Z,78.12
2018-12-21T10:38:29.501Z,78.21
2018-12-21T10:39:33.909Z,78.15
2018-12-21T10:40:38.291Z,78.50
2018-12-21T10:41:42.575Z,80.48
2018-12-21T10:42:47.108Z,80.04
2018-12-21T10:43:51.489Z,78.66
2018-12-21T10:44:55.725Z,77.69
2018-12-21T10:46:03.902Z,77.64
2018-12-21T10:47:09.170Z,79.14
2018-12-21T10:48:13.375Z,79.19
2018-12-21T10:49:17.448Z,78.18
2018-12-21T10:50:21.519Z,78.93
2018-12-21T10:51:25.632Z,78.52
2018-12-21T10:52:29.891Z,78.94
2018-12-21T10:53:34.011Z,78.60
2018-12-21T10:54:38.085Z,80.22
2018-12-21T10:55:42.210Z,77.89
2018-12-21T10:56:46.289Z,81.03
2018-12-21T10:57:50.462Z,79.62
2018-12-21T10:58:54.596Z,79.87
2018-12-21T10:59:58.626Z,79.51
2018-12-21T11:01:02.813Z,78.65
2018-12-21T11:02:06.968Z,78.62
2018-12-21T11:03:11.026Z,79.74
2018-12-21T11:04:15.126Z,78.67
2018-12-21T11:05:19.501Z,81.65
2018-12-21T11:06:23.929Z,82.17
2018-12-21T11:07:31.147Z,82.48
2018-12-21T11:08:35.228Z,83.04
2018-12-21T11:09:39.755Z,78.79
2018-12-21T11:10:45.888Z,78.53
2018-12-21T11:11:48.493Z,78.66
2018-12-21T11:12:52.911Z,81.28
2018-12-21T11:13:57.297Z,77.47
2018-12-21T11:15:01.508Z,78.23
2018-12-21T11:16:05.583Z,76.57
2018-12-21T11:17:09.647Z,79.04
2018-12-21T11:18:13.845Z,77.46
2018-12-21T11:19:17.899Z,80.41
2018-12-21T11:20:22.024Z,78.47
2018-12-21T11:21:26.166Z,77.60
2018-12-21T11:22:30.421Z,77.38
2018-12-21T11:23:34.581Z,75.92
2018-12-21T11:24:38.620Z,76.89
2018-12-21T11:25:42.678Z,78.13
2018-12-21T11:26:46.829Z,77.11
2018-12-21T11:27:50.901Z,79.37
2018-12-21T11:28:55.023Z,77.00
2018-12-21T11:29:59.140Z,76.12
2018-12-21T11:31:03.399Z,77.06
2018-12-21T11:32:07.860Z,76.63
2018-12-21T11:33:12.194Z,77.47
2018-12-21T11:34:16.643Z,78.25
2018-12-21T11:35:20.861Z,76.53
2018-12-21T11:36:25.136Z,78.21
2018-12-21T11:37:29.222Z,77.16
2018-12-21T11:38:33.406Z,76.44
2018-12-21T11:39:37.775Z,79.52
2018-12-21T11:40:41.973Z,81.04
2018-12-21T11:41:48.777Z,78.09
2018-12-21T11:42:53.299Z,81.15
2018-12-21T11:43:57.493Z,81.78
2018-12-21T11:45:01.960Z,79.72
2018-12-21T11:46:06.107Z,81.79
2018-12-21T11:47:10.347Z,82.13
2018-12-21T11:48:14.412Z,82.33
2018-12-21T11:49:18.565Z,82.57
2018-12-21T11:50:22.993Z,82.14
2018-12-21T11:51:27.501Z,81.51
2018-12-21T11:52:32.004Z,80.71
2018-12-21T11:53:36.519Z,78.21
2018-12-21T11:54:44.455Z,77.33
2018-12-21T11:55:44.896Z,76.64
2018-12-21T11:56:49.001Z,75.61
2018-12-21T11:57:54.083Z,78.47
2018-12-21T11:58:59.237Z,80.31
2018-12-21T12:00:03.378Z,80.07
2018-12-21T12:01:07.576Z,80.17
2018-12-21T12:02:19.280Z,80.43
2018-12-21T12:03:15.908Z,77.51
2018-12-21T12:04:19.948Z,75.84
2018-12-21T12:05:24.129Z,77.18
2018-12-21T12:06:28.275Z,79.26
2018-12-21T12:07:32.365Z,80.30
2018-12-21T12:08:36.488Z,80.98
2018-12-21T12:09:40.612Z,78.58
2018-12-21T12:10:44.760Z,75.00
2018-12-21T12:11:48.941Z,78.25
2018-12-21T12:12:53.003Z,79.91
2018-12-21T12:13:57.108Z,80.91
2018-12-21T12:15:01.339Z,79.48
2018-12-21T12:16:05.618Z,77.42
2018-12-21T12:17:10.103Z,75.95
2018-12-21T12:18:14.476Z,76.20
2018-12-21T12:19:18.879Z,75.64
2018-12-21T12:20:23.228Z,76.43
2018-12-21T12:21:27.655Z,77.39
2018-12-21T12:22:31.934Z,75.25
2018-12-21T12:23:36.314Z,77.91
2018-12-21T12:24:40.754Z,76.24
2018-12-21T12:25:45.167Z,77.50
2018-12-21T12:26:49.428Z,76.34
2018-12-21T12:27:53.663Z,75.92
2018-12-21T12:28:57.713Z,77.07
2018-12-21T12:30:02.059Z,78.29
2018-12-21T12:31:06.213Z,80.11
2018-12-21T12:32:10.502Z,79.38
2018-12-21T12:33:14.742Z,77.14
2018-12-21T12:34:20.755Z,77.62
2018-12-21T12:35:24.820Z,77.79
2018-12-21T12:36:29.026Z,78.76
2018-12-21T12:37:34.909Z,77.36
2018-12-21T12:38:39.271Z,77.60
2018-12-21T12:39:43.714Z,76.01
2018-12-21T12:40:48.109Z,76.78
2018-12-21T12:41:52.543Z,77.54
2018-12-21T12:42:56.899Z,78.97
2018-12-21T12:44:01.636Z,79.71
2018-12-21T12:45:07.089Z,77.70
2018-12-21T12:46:11.619Z,78.47
2018-12-21T12:47:16.133Z,77.12
2018-12-21T12:48:20.778Z,77.71
2018-12-21T12:49:25.252Z,77.06
2018-12-21T12:50:30.548Z,76.18
2018-12-21T12:51:35.232Z,78.79
2018-12-21T12:52:39.538Z,77.41
2018-12-21T12:53:43.781Z,79.20
2018-12-21T12:54:48.045Z,78.43
2018-12-21T12:55:52.116Z,78.46
2018-12-21T12:56:56.209Z,79.05
2018-12-21T12:58:00.513Z,81.03
2018-12-21T12:59:06.018Z,78.70
2018-12-21T13:00:12.888Z,79.99
2018-12-21T13:01:17.239Z,76.94
2018-12-21T13:02:21.483Z,76.81
2018-12-21T13:03:25.749Z,78.20
2018-12-21T13:04:29.858Z,79.89
2018-12-21T13:05:34.129Z,80.34
2018-12-21T13:06:38.277Z,79.84
2018-12-21T13:07:42.742Z,77.38
2018-12-21T13:08:47.188Z,77.97
2018-12-21T13:09:51.519Z,77.25
2018-12-21T13:10:55.947Z,77.61
2018-12-21T13:12:00.414Z,78.11
2018-12-21T13:13:04.601Z,78.84
2018-12-21T13:14:08.952Z,81.06
2018-12-21T13:15:13.805Z,78.30
2018-12-21T13:16:17.940Z,77.94
2018-12-21T13:17:22.175Z,77.74
2018-12-21T13:18:26.481Z,78.08
2018-12-21T13:19:30.662Z,79.46
2018-12-21T13:20:34.968Z,78.72
2018-12-21T13:21:39.365Z,78.62
2018-12-21T13:22:43.566Z,80.29
2018-12-21T13:23:47.754Z,80.78
2018-12-21T13:24:52.124Z,81.76
2018-12-21T13:25:56.370Z,80.13
2018-12-21T13:27:00.506Z,78.38
2018-12-21T13:28:04.891Z,78.82
2018-12-21T13:29:09.291Z,77.91
2018-12-21T13:30:13.619Z,77.36
2018-12-21T13:31:17.878Z,77.10
2018-12-21T13:32:22.093Z,79.46
2018-12-21T13:33:26.213Z,79.10
2018-12-21T13:34:30.523Z,81.11
2018-12-21T13:35:34.704Z,79.42
2018-12-21T13:36:38.954Z,80.59
2018-12-21T13:37:43.169Z,76.53
2018-12-21T13:38:47.473Z,77.47
2018-12-21T13:39:51.534Z,76.82
2018-12-21T13:40:55.757Z,76.38
2018-12-21T13:41:59.929Z,76.51
2018-12-21T13:43:04.033Z,76.26
2018-12-21T13:44:08.323Z,76.61
2018-12-21T13:45:12.688Z,76.76
2018-12-21T13:46:16.884Z,78.07
2018-12-21T13:47:20.972Z,81.04
2018-12-21T13:48:25.211Z,79.05
2018-12-21T13:49:29.332Z,78.08
2018-12-21T13:50:33.427Z,80.26
2018-12-21T13:51:37.736Z,80.22
2018-12-21T13:52:41.897Z,79.45
2018-12-21T13:53:46.163Z,78.72
2018-12-21T13:54:50.379Z,78.13
2018-12-21T13:55:54.526Z,80.64
2018-12-21T13:56:58.804Z,80.79
2018-12-21T13:58:03.174Z,81.68
2018-12-21T13:59:07.412Z,79.66
2018-12-21T14:00:12.082Z,79.80
2018-12-21T14:01:16.326Z,78.26
2018-12-21T14:02:20.498Z,78.87
2018-12-21T14:03:24.720Z,80.02
2018-12-21T14:04:28.931Z,77.81
2018-12-21T14:05:33.230Z,77.34
2018-12-21T14:06:37.545Z,77.51
2018-12-21T14:07:42.580Z,77.03
2018-12-21T14:08:46.747Z,78.88
2018-12-21T14:09:50.865Z,79.67
2018-12-21T14:10:54.994Z,80.58
2018-12-21T14:11:59.106Z,79.27
2018-12-21T14:13:03.440Z,78.15
2018-12-21T14:14:07.578Z,78.32
2018-12-21T14:15:11.804Z,80.74
2018-12-21T14:16:16.107Z,82.10
2018-12-21T14:17:20.295Z,81.75
2018-12-21T14:18:24.697Z,79.30
2018-12-21T14:19:28.905Z,79.99
2018-12-21T14:20:33.175Z,78.33
2018-12-21T14:21:37.288Z,76.82
2018-12-21T14:22:41.631Z,76.92
2018-12-21T14:23:45.911Z,79.80
2018-12-21T14:24:50.143Z,77.83
2018-12-21T14:25:54.326Z,79.48
2018-12-21T14:26:58.407Z,80.20
2018-12-21T14:28:02.540Z,80.37
2018-12-21T14:29:06.828Z,78.74
2018-12-21T14:30:11.419Z,77.10
2018-12-21T14:31:15.693Z,77.17
2018-12-21T14:32:19.907Z,79.72
2018-12-21T14:33:24.095Z,78.70
2018-12-21T14:34:28.402Z,80.60
2018-12-21T14:35:32.754Z,80.92
2018-12-21T14:36:36.928Z,82.15
2018-12-21T14:37:41.419Z,82.19
2018-12-21T14:38:45.822Z,79.87
2018-12-21T14:39:50.504Z,81.21
2018-12-21T14:40:54.904Z,77.89
2018-12-21T14:41:59.473Z,77.55
2018-12-21T14:43:03.808Z,76.99
2018-12-21T14:44:08.159Z,77.52
2018-12-21T14:45:12.617Z,76.75
2018-12-21T14:46:16.946Z,79.62
2018-12-21T14:47:21.204Z,77.48
2018-12-21T14:48:25.389Z,78.01
2018-12-21T14:49:29.525Z,76.53
2018-12-21T14:50:33.740Z,77.92
2018-12-21T14:51:37.892Z,77.39
2018-12-21T14:52:42.059Z,77.75
2018-12-21T14:53:46.233Z,77.54
2018-12-21T14:54:50.396Z,78.23
2018-12-21T14:55:54.531Z,77.25
2018-12-21T14:56:59.043Z,76.75
2018-12-21T14:58:03.508Z,78.19
2018-12-21T14:59:08.068Z,80.57
2018-12-21T15:00:14.213Z,77.84
2018-12-21T15:01:18.985Z,78.89
2018-12-21T15:02:24.202Z,77.60
2018-12-21T15:03:30.266Z,78.35
2018-12-21T15:04:34.505Z,77.57
2018-12-21T15:05:38.915Z,77.84
2018-12-21T15:06:43.777Z,80.02
2018-12-21T15:07:48.194Z,77.61
2018-12-21T15:08:53.074Z,77.90
2018-12-21T15:09:57.622Z,77.97
2018-12-21T15:11:02.144Z,78.11
2018-12-21T15:12:07.442Z,80.95
2018-12-21T15:13:11.841Z,81.59
2018-12-21T15:14:17.979Z,81.46
2018-12-21T15:15:22.996Z,81.33
2018-12-21T15:16:27.953Z,81.43
2018-12-21T15:17:32.434Z,82.74
2018-12-21T15:18:37.917Z,82.78
2018-12-21T15:19:42.234Z,82.48
2018-12-21T15:20:46.813Z,83.00
2018-12-21T15:21:51.252Z,82.45
2018-12-21T15:22:55.636Z,80.96
2018-12-21T15:24:00.155Z,79.52
2018-12-21T15:25:05.831Z,81.46
2018-12-21T15:26:11.922Z,78.14
2018-12-21T15:27:17.098Z,78.15
2018-12-21T15:28:21.705Z,78.26
2018-12-21T15:29:26.308Z,76.99
2018-12-21T15:30:30.849Z,77.48
2018-12-21T15:31:35.874Z,77.45
2018-12-21T15:32:41.125Z,76.77
2018-12-21T15:33:45.304Z,78.49
2018-12-21T15:34:49.360Z,77.49
2018-12-21T15:35:53.429Z,75.93
2018-12-21T15:36:57.503Z,77.64
2018-12-21T15:38:01.566Z,76.12
2018-12-21T15:39:07.151Z,76.53
2018-12-21T15:40:11.117Z,76.04
2018-12-21T15:41:15.226Z,77.19
2018-12-21T15:42:19.263Z,75.90
2018-12-21T15:43:26.181Z,75.75
2018-12-21T15:44:30.650Z,76.35
2018-12-21T15:45:35.046Z,76.31
2018-12-21T15:46:39.540Z,76.19
2018-12-21T15:47:43.911Z,77.41
2018-12-21T15:48:47.921Z,76.17
2018-12-21T15:49:51.958Z,79.10
2018-12-21T15:50:56.054Z,81.06
2018-12-21T15:52:00.061Z,78.66
2018-12-21T15:53:04.177Z,79.62
2018-12-21T15:54:08.311Z,77.45
2018-12-21T15:55:12.621Z,78.30
2018-12-21T15:56:16.670Z,80.39
2018-12-21T15:57:20.754Z,81.34
2018-12-21T15:58:25.605Z,79.30
2018-12-21T15:59:30.471Z,81.06
2018-12-21T16:00:34.748Z,81.62
2018-12-21T16:01:39.176Z,80.93
2018-12-21T16:02:46.014Z,79.65
2018-12-21T16:03:50.101Z,77.51
2018-12-21T16:04:54.474Z,75.62
2018-12-21T16:05:58.869Z,77.57
2018-12-21T16:07:03.164Z,79.59
2018-12-21T16:08:07.574Z,80.26
2018-12-21T16:09:12.017Z,79.70
2018-12-21T16:10:16.107Z,80.91
2018-12-21T16:11:20.214Z,78.89
2018-12-21T16:12:24.423Z,78.00
2018-12-21T16:13:28.844Z,79.10
2018-12-21T16:14:34.534Z,80.57
2018-12-21T16:15:38.101Z,85.26
2018-12-21T16:16:42.617Z,83.93
2018-12-21T16:17:46.712Z,81.74
2018-12-21T16:18:50.870Z,85.36
2018-12-21T16:19:55.159Z,87.33
2018-12-21T16:20:59.483Z,83.11
2018-12-21T16:22:03.551Z,79.60
2018-12-21T16:23:07.704Z,82.16
2018-12-21T16:24:11.824Z,76.23
2018-12-21T16:25:15.944Z,78.28
2018-12-21T16:26:20.173Z,81.96
2018-12-21T16:27:24.255Z,82.60
2018-12-21T16:28:28.396Z,82.80
2018-12-21T16:29:32.540Z,82.66
2018-12-21T16:30:36.931Z,82.02
2018-12-21T16:31:41.481Z,82.33
2018-12-21T16:32:46.830Z,82.40
2018-12-21T16:33:51.619Z,82.27
2018-12-21T16:34:56.688Z,79.52
2018-12-21T16:36:01.852Z,80.51
2018-12-21T16:37:06.453Z,80.99
2018-12-21T16:38:10.961Z,81.12
2018-12-21T16:39:16.016Z,81.29
2018-12-21T16:40:20.306Z,73.54
2018-12-21T16:41:24.580Z,71.45
2018-12-21T16:42:28.902Z,71.58
2018-12-21T16:43:33.372Z,70.65
2018-12-21T16:44:37.651Z,73.17
2018-12-21T16:45:43.581Z,74.25
2018-12-21T16:46:48.108Z,73.67
2018-12-21T16:47:52.379Z,75.40
2018-12-21T16:48:56.665Z,77.51
2018-12-21T16:50:01.056Z,73.31
2018-12-21T16:51:05.468Z,75.33